createdAt,value
2019-05-30T00:01:54.209Z,101307.57
2019-05-30T00:04:23.230Z,101311.82
2019-05-30T00:06:52.293Z,101301.39
2019-05-30T00:09:21.461Z,101302.53
2019-05-30T00:11:50.335Z,101299.53
2019-05-30T00:14:19.285Z,101301.67
2019-05-30T00:16:48.446Z,101302.04
2019-05-30T00:19:17.641Z,101298.91
2019-05-30T00:21:46.846Z,101300.60
2019-05-30T00:24:16.053Z,101304.14
2019-05-30T00:26:44.895Z,101303.56
2019-05-30T00:29:13.702Z,101300.14
2019-05-30T00:31:42.649Z,101291.02
2019-05-30T00:34:11.614Z,101299.39
2019-05-30T00:36:40.795Z,101294.45
2019-05-30T00:39:10.033Z,101298.90
2019-05-30T00:41:39.330Z,101297.91
2019-05-30T00:44:08.197Z,101297.62
2019-05-30T00:46:36.983Z,101297.48
2019-05-30T00:49:06.681Z,101298.31
2019-05-30T00:51:36.319Z,101296.70
2019-05-30T00:54:05.269Z,101302.19
2019-05-30T00:56:34.487Z,101306.31
2019-05-30T00:59:03.376Z,101304.20
2019-05-30T01:01:32.880Z,101302.27
2019-05-30T01:04:02.840Z,101296.68
2019-05-30T01:06:32.129Z,101301.67
2019-05-30T01:09:01.397Z,101300.52
2019-05-30T01:11:30.362Z,101294.27
2019-05-30T01:13:59.497Z,101292.45
2019-05-30T01:16:28.775Z,101294.47
2019-05-30T01:18:58.952Z,101282.58
2019-05-30T01:21:27.997Z,101290.84
2019-05-30T01:23:57.305Z,101281.92
2019-05-30T01:26:26.082Z,101284.89
2019-05-30T01:28:55.233Z,101287.89
2019-05-30T01:31:24.488Z,101288.56
2019-05-30T01:33:53.859Z,101291.56
2019-05-30T01:36:22.609Z,101287.23
2019-05-30T01:38:51.796Z,101289.88
2019-05-30T01:41:20.860Z,101288.72
2019-05-30T01:43:50.094Z,101292.52
2019-05-30T01:46:19.013Z,101295.03
2019-05-30T01:48:47.937Z,101290.08
2019-05-30T01:51:17.269Z,101293.41
2019-05-30T01:53:46.144Z,101295.09
2019-05-30T01:56:15.325Z,101291.33
2019-05-30T01:58:44.178Z,101289.51
2019-05-30T02:01:23.695Z,101289.21
2019-05-30T02:03:43.702Z,101288.91
2019-05-30T02:06:12.691Z,101286.95
2019-05-30T02:08:41.545Z,101286.80
2019-05-30T02:11:10.413Z,101285.00
2019-05-30T02:13:39.346Z,101280.08
2019-05-30T02:16:08.315Z,101280.23
2019-05-30T02:18:37.402Z,101283.24
2019-05-30T02:21:06.294Z,101279.47
2019-05-30T02:23:35.475Z,101280.63
2019-05-30T02:26:04.348Z,101284.27
2019-05-30T02:28:33.263Z,101278.97
2019-05-30T02:31:02.996Z,101282.58
2019-05-30T02:33:32.416Z,101279.94
2019-05-30T02:36:04.059Z,101283.91
2019-05-30T02:38:31.921Z,101284.27
2019-05-30T02:41:01.366Z,101287.87
2019-05-30T02:43:31.811Z,101284.40
2019-05-30T02:46:01.142Z,101279.80
2019-05-30T02:48:30.144Z,101289.72
2019-05-30T02:51:01.050Z,101289.58
2019-05-30T02:53:29.915Z,101295.06
2019-05-30T02:55:58.784Z,101293.30
2019-05-30T02:58:27.939Z,101297.96
2019-05-30T03:00:56.922Z,101291.51
2019-05-30T03:03:25.683Z,101287.90
2019-05-30T03:05:54.743Z,101296.49
2019-05-30T03:08:23.950Z,101300.98
2019-05-30T03:10:53.315Z,101298.20
2019-05-30T03:13:22.223Z,101297.89
2019-05-30T03:15:51.346Z,101300.56
2019-05-30T03:18:20.183Z,101303.90
2019-05-30T03:20:49.252Z,101301.28
2019-05-30T03:23:18.107Z,101302.30
2019-05-30T03:25:47.280Z,101295.50
2019-05-30T03:28:16.545Z,101296.19
2019-05-30T03:30:46.155Z,101294.20
2019-05-30T03:33:32.940Z,101291.41
2019-05-30T03:35:46.214Z,101299.52
2019-05-30T03:38:15.703Z,101295.91
2019-05-30T03:40:44.774Z,101299.70
2019-05-30T03:43:15.658Z,101299.89
2019-05-30T03:45:44.984Z,101299.26
2019-05-30T03:48:16.557Z,101299.09
2019-05-30T03:50:48.702Z,101297.28
2019-05-30T03:53:17.655Z,101307.73
2019-05-30T03:55:50.594Z,101304.28
2019-05-30T03:58:49.302Z,101303.97
2019-05-30T04:01:23.669Z,101303.98
2019-05-30T04:04:12.170Z,101307.83
2019-05-30T04:06:45.716Z,101305.20
2019-05-30T04:09:21.967Z,101306.39
2019-05-30T04:12:14.918Z,101313.17
2019-05-30T04:14:45.614Z,101311.39
2019-05-30T04:17:17.700Z,101318.84
2019-05-30T04:19:46.911Z,101314.73
2019-05-30T04:22:16.130Z,101320.03
2019-05-30T04:24:45.321Z,101318.53
2019-05-30T04:27:18.563Z,101318.70
2019-05-30T04:29:47.648Z,101321.36
2019-05-30T04:32:16.721Z,101321.00
2019-05-30T04:34:46.071Z,101330.95
2019-05-30T04:37:17.163Z,101326.16
2019-05-30T04:39:46.468Z,101329.77
2019-05-30T04:42:17.807Z,101330.45
2019-05-30T04:44:46.587Z,101328.81
2019-05-30T04:47:18.421Z,101325.35
2019-05-30T04:49:48.275Z,101321.71
2019-05-30T04:52:21.094Z,101321.58
2019-05-30T04:54:48.093Z,101327.90
2019-05-30T04:57:17.400Z,101323.78
2019-05-30T04:59:47.914Z,101322.50
2019-05-30T05:02:18.828Z,101322.69
2019-05-30T05:04:48.071Z,101326.52
2019-05-30T05:07:17.810Z,101319.72
2019-05-30T05:09:46.862Z,101326.70
2019-05-30T05:12:16.110Z,101324.56
2019-05-30T05:14:45.181Z,101324.23
2019-05-30T05:17:14.733Z,101323.77
2019-05-30T05:19:44.167Z,101318.45
2019-05-30T05:22:12.927Z,101329.92
2019-05-30T05:24:42.188Z,101327.41
2019-05-30T05:27:11.376Z,101331.56
2019-05-30T05:29:40.249Z,101332.39
2019-05-30T05:32:09.178Z,101335.22
2019-05-30T05:34:38.378Z,101332.06
2019-05-30T05:37:07.234Z,101337.86
2019-05-30T05:39:36.154Z,101325.44
2019-05-30T05:42:05.052Z,101331.06
2019-05-30T05:44:33.939Z,101325.75
2019-05-30T05:47:03.126Z,101324.09
2019-05-30T05:49:31.994Z,101332.58
2019-05-30T05:52:01.187Z,101325.91
2019-05-30T05:54:30.043Z,101326.78
2019-05-30T05:56:59.668Z,101331.23
2019-05-30T05:59:29.305Z,101341.83
2019-05-30T06:01:58.691Z,101340.00
2019-05-30T06:04:27.616Z,101332.83
2019-05-30T06:06:56.889Z,101342.27
2019-05-30T06:09:25.850Z,101348.02
2019-05-30T06:11:54.774Z,101345.00
2019-05-30T06:14:24.182Z,101351.95
2019-05-30T06:16:55.929Z,101355.27
2019-05-30T06:19:25.333Z,101355.91
2019-05-30T06:21:54.773Z,101359.40
2019-05-30T06:24:23.925Z,101356.69
2019-05-30T06:26:53.216Z,101358.50
2019-05-30T06:29:22.222Z,101355.33
2019-05-30T06:31:51.726Z,101363.50
2019-05-30T06:34:36.008Z,101365.33
2019-05-30T06:36:51.957Z,101362.14
2019-05-30T06:39:21.291Z,101359.61
2019-05-30T06:41:50.414Z,101365.77
2019-05-30T06:44:19.841Z,101364.56
2019-05-30T06:46:48.827Z,101363.70
2019-05-30T06:49:17.760Z,101365.55
2019-05-30T06:51:46.669Z,101365.89
2019-05-30T06:54:15.576Z,101363.92
2019-05-30T06:56:44.972Z,101367.41
2019-05-30T06:59:14.058Z,101371.72
2019-05-30T07:01:42.922Z,101358.95
2019-05-30T07:04:12.230Z,101362.28
2019-05-30T07:06:42.022Z,101360.13
2019-05-30T07:09:11.163Z,101359.11
2019-05-30T07:11:40.439Z,101365.41
2019-05-30T07:14:09.471Z,101369.00
2019-05-30T07:16:38.682Z,101365.45
2019-05-30T07:19:07.536Z,101364.94
2019-05-30T07:21:36.610Z,101366.36
2019-05-30T07:24:05.910Z,101375.44
2019-05-30T07:26:34.886Z,101376.06
2019-05-30T07:29:03.925Z,101379.90
2019-05-30T07:31:34.269Z,101380.29
2019-05-30T07:34:03.672Z,101388.63
2019-05-30T07:36:32.600Z,101389.96
2019-05-30T07:39:01.516Z,101395.64
2019-05-30T07:41:30.640Z,101395.67
2019-05-30T07:43:59.593Z,101397.34
2019-05-30T07:46:28.975Z,101410.31
2019-05-30T07:48:58.118Z,101403.15
2019-05-30T07:51:26.975Z,101414.49
2019-05-30T07:53:56.689Z,101408.34
2019-05-30T07:56:26.934Z,101408.19
2019-05-30T07:58:56.042Z,101407.88
2019-05-30T08:01:26.257Z,101411.52
2019-05-30T08:03:55.680Z,101408.47
2019-05-30T08:06:25.575Z,101415.44
2019-05-30T08:08:54.728Z,101421.56
2019-05-30T08:11:23.934Z,101410.75
2019-05-30T08:13:53.124Z,101415.50
2019-05-30T08:16:22.757Z,101406.92
2019-05-30T08:18:51.753Z,101414.94
2019-05-30T08:21:20.732Z,101408.50
2019-05-30T08:23:49.616Z,101414.20
2019-05-30T08:26:18.999Z,101416.45
2019-05-30T08:28:47.900Z,101419.98
2019-05-30T08:31:17.031Z,101422.94
2019-05-30T08:33:47.468Z,101422.83
2019-05-30T08:36:16.540Z,101423.31
2019-05-30T08:38:48.091Z,101423.05
2019-05-30T08:41:16.649Z,101421.02
2019-05-30T08:43:46.088Z,101422.69
2019-05-30T08:46:15.375Z,101430.31
2019-05-30T08:48:44.345Z,101421.56
2019-05-30T08:51:13.553Z,101420.90
2019-05-30T08:53:42.704Z,101418.39
2019-05-30T08:56:11.607Z,101416.29
2019-05-30T08:58:41.009Z,101405.02
2019-05-30T09:01:10.547Z,101404.14
2019-05-30T09:03:40.166Z,101405.22
2019-05-30T09:06:09.433Z,101407.06
2019-05-30T09:08:38.592Z,101393.32
2019-05-30T09:11:07.705Z,101408.34
2019-05-30T09:13:37.832Z,101400.56
2019-05-30T09:16:07.245Z,101403.80
2019-05-30T09:18:37.987Z,101412.25
2019-05-30T09:21:07.316Z,101401.45
2019-05-30T09:23:38.366Z,101408.35
2019-05-30T09:26:07.252Z,101398.20
2019-05-30T09:28:36.425Z,101403.09
2019-05-30T09:31:06.043Z,101400.16
2019-05-30T09:33:35.022Z,101403.21
2019-05-30T09:36:12.619Z,101398.76
2019-05-30T09:38:34.965Z,101409.45
2019-05-30T09:41:03.796Z,101412.63
2019-05-30T09:43:33.065Z,101418.80
2019-05-30T09:46:02.278Z,101425.09
2019-05-30T09:48:31.435Z,101419.02
2019-05-30T09:51:00.445Z,101421.42
2019-05-30T09:53:29.412Z,101425.23
2019-05-30T09:55:58.363Z,101423.13
2019-05-30T09:58:27.616Z,101427.30
2019-05-30T10:00:56.460Z,101424.48
2019-05-30T10:03:25.417Z,101423.69
2019-05-30T10:05:54.279Z,101426.14
2019-05-30T10:08:23.515Z,101435.64
2019-05-30T10:10:53.496Z,101442.45
2019-05-30T10:13:22.488Z,101436.50
2019-05-30T10:15:52.493Z,101435.54
2019-05-30T10:18:21.498Z,101432.59
2019-05-30T10:20:51.962Z,101438.20
2019-05-30T10:23:21.375Z,101435.02
2019-05-30T10:25:51.224Z,101430.35
2019-05-30T10:28:20.085Z,101432.29
2019-05-30T10:30:53.890Z,101432.29
2019-05-30T10:33:20.126Z,101428.80
2019-05-30T10:35:49.265Z,101429.68
2019-05-30T10:38:20.077Z,101434.90
2019-05-30T10:40:50.375Z,101438.44
2019-05-30T10:43:19.651Z,101441.42
2019-05-30T10:45:49.471Z,101439.83
2019-05-30T10:48:20.922Z,101445.28
2019-05-30T10:50:50.481Z,101443.41
2019-05-30T10:53:19.447Z,101445.43
2019-05-30T10:55:50.030Z,101452.45
2019-05-30T10:58:19.091Z,101455.95
2019-05-30T11:00:52.989Z,101453.86
2019-05-30T11:03:22.776Z,101451.13
2019-05-30T11:06:26.080Z,101455.78
2019-05-30T11:08:57.150Z,101455.00
2019-05-30T11:11:26.306Z,101460.74
2019-05-30T11:13:55.458Z,101461.63
2019-05-30T11:16:24.288Z,101462.25
2019-05-30T11:18:54.607Z,101462.01
2019-05-30T11:21:24.346Z,101458.33
2019-05-30T11:23:54.375Z,101459.68
2019-05-30T11:26:23.353Z,101461.77
2019-05-30T11:28:52.696Z,101465.20
2019-05-30T11:31:21.644Z,101470.48
2019-05-30T11:33:50.843Z,101473.14
2019-05-30T11:36:20.013Z,101477.33
2019-05-30T11:38:49.153Z,101464.13
2019-05-30T11:41:18.504Z,101465.08
2019-05-30T11:43:47.395Z,101473.21
2019-05-30T11:46:16.323Z,101473.66
2019-05-30T11:48:45.506Z,101475.85
2019-05-30T11:51:15.250Z,101477.91
2019-05-30T11:53:44.388Z,101475.67
2019-05-30T11:56:13.243Z,101478.34
2019-05-30T11:58:42.286Z,101474.81
2019-05-30T12:01:11.142Z,101474.81
2019-05-30T12:03:40.077Z,101469.42
2019-05-30T12:06:08.994Z,101477.80
2019-05-30T12:08:38.258Z,101480.77
2019-05-30T12:11:07.101Z,101476.69
2019-05-30T12:13:36.289Z,101479.28
2019-05-30T12:16:05.251Z,101482.08
2019-05-30T12:18:34.098Z,101484.13
2019-05-30T12:21:03.060Z,101487.36
2019-05-30T12:23:32.209Z,101490.63
2019-05-30T12:26:02.166Z,101492.91
2019-05-30T12:28:31.449Z,101493.16
2019-05-30T12:31:04.519Z,101488.17
2019-05-30T12:33:30.962Z,101493.22
2019-05-30T12:36:00.644Z,101490.03
2019-05-30T12:38:29.670Z,101486.33
2019-05-30T12:40:58.816Z,101487.85
2019-05-30T12:43:27.830Z,101487.19
2019-05-30T12:45:57.344Z,101487.84
2019-05-30T12:48:26.130Z,101492.47
2019-05-30T12:50:55.222Z,101488.45
2019-05-30T12:53:24.150Z,101494.98
2019-05-30T12:55:54.273Z,101492.60
2019-05-30T12:58:23.215Z,101494.67
2019-05-30T13:00:52.083Z,101492.44
2019-05-30T13:03:21.031Z,101493.15
2019-05-30T13:05:50.100Z,101488.29
2019-05-30T13:08:21.951Z,101496.50
2019-05-30T13:10:49.865Z,101502.15
2019-05-30T13:13:19.041Z,101503.48
2019-05-30T13:15:48.011Z,101498.97
2019-05-30T13:18:17.136Z,101499.73
2019-05-30T13:20:46.427Z,101496.55
2019-05-30T13:23:15.244Z,101502.04
2019-05-30T13:25:44.415Z,101493.00
2019-05-30T13:28:13.387Z,101482.78
2019-05-30T13:30:42.349Z,101486.87
2019-05-30T13:33:11.307Z,101493.80
2019-05-30T13:35:40.221Z,101491.98
2019-05-30T13:38:09.272Z,101493.11
2019-05-30T13:40:38.173Z,101497.80
2019-05-30T13:43:08.037Z,101503.03
2019-05-30T13:45:37.275Z,101493.83
2019-05-30T13:48:06.615Z,101495.22
2019-05-30T13:50:35.824Z,101496.09
2019-05-30T13:53:05.379Z,101494.98
2019-05-30T13:55:34.328Z,101497.52
2019-05-30T13:58:03.652Z,101495.87
2019-05-30T14:00:32.550Z,101496.05
2019-05-30T14:03:02.339Z,101505.14
2019-05-30T14:05:31.481Z,101510.52
2019-05-30T14:08:00.354Z,101502.06
2019-05-30T14:10:29.285Z,101507.25
2019-05-30T14:12:58.496Z,101500.94
2019-05-30T14:15:27.753Z,101509.62
2019-05-30T14:17:58.563Z,101514.50
2019-05-30T14:20:28.202Z,101515.52
2019-05-30T14:22:57.492Z,101516.66
2019-05-30T14:25:26.361Z,101506.69
2019-05-30T14:27:55.133Z,101503.31
2019-05-30T14:30:24.503Z,101501.11
2019-05-30T14:32:53.871Z,101506.94
2019-05-30T14:35:22.942Z,101500.27
2019-05-30T14:37:51.989Z,101508.39
2019-05-30T14:40:20.942Z,101513.05
2019-05-30T14:42:50.892Z,101510.89
2019-05-30T14:45:20.328Z,101506.08
2019-05-30T14:47:49.480Z,101508.58
2019-05-30T14:50:18.423Z,101509.50
2019-05-30T14:52:48.550Z,101502.16
2019-05-30T14:55:18.331Z,101502.27
2019-05-30T14:57:47.814Z,101500.38
2019-05-30T15:00:18.022Z,101505.09
2019-05-30T15:02:46.975Z,101512.38
2019-05-30T15:05:16.681Z,101514.87
2019-05-30T15:07:45.723Z,101517.34
2019-05-30T15:10:15.046Z,101517.80
2019-05-30T15:12:43.941Z,101509.56
2019-05-30T15:15:17.121Z,101512.26
2019-05-30T15:17:45.951Z,101504.20
2019-05-30T15:20:15.466Z,101507.95
2019-05-30T15:22:44.389Z,101508.94
2019-05-30T15:25:16.451Z,101509.95
2019-05-30T15:27:45.518Z,101509.41
2019-05-30T15:30:14.888Z,101507.94
2019-05-30T15:32:44.162Z,101504.97
2019-05-30T15:35:15.704Z,101506.91
2019-05-30T15:37:44.878Z,101510.75
2019-05-30T15:40:15.101Z,101513.48
2019-05-30T15:42:44.351Z,101514.43
2019-05-30T15:45:16.144Z,101507.35
2019-05-30T15:47:45.177Z,101497.49
2019-05-30T15:50:15.359Z,101500.24
2019-05-30T15:52:45.211Z,101498.94
2019-05-30T15:55:15.277Z,101503.51
2019-05-30T15:57:44.477Z,101508.69
2019-05-30T16:00:14.297Z,101503.36
2019-05-30T16:02:43.160Z,101499.98
2019-05-30T16:05:14.588Z,101498.24
2019-05-30T16:07:43.627Z,101507.83
2019-05-30T16:10:12.918Z,101501.29
2019-05-30T16:12:41.780Z,101494.80
2019-05-30T16:15:11.831Z,101497.97
2019-05-30T16:17:40.626Z,101498.67
2019-05-30T16:20:09.575Z,101492.50
2019-05-30T16:22:38.561Z,101499.98
2019-05-30T16:25:08.795Z,101492.38
2019-05-30T16:27:37.965Z,101489.27
2019-05-30T16:30:08.301Z,101492.25
2019-05-30T16:32:37.805Z,101487.77
2019-05-30T16:35:07.836Z,101490.07
2019-05-30T16:37:36.816Z,101484.90
2019-05-30T16:40:07.060Z,101478.64
2019-05-30T16:42:36.121Z,101483.59
2019-05-30T16:45:05.814Z,101476.30
2019-05-30T16:47:34.718Z,101478.80
2019-05-30T16:50:03.694Z,101477.78
2019-05-30T16:52:32.679Z,101475.19
2019-05-30T16:55:01.520Z,101467.68
2019-05-30T16:57:30.395Z,101472.28
2019-05-30T16:59:59.526Z,101476.52
2019-05-30T17:02:28.419Z,101467.47
2019-05-30T17:04:57.578Z,101461.77
2019-05-30T17:07:27.630Z,101471.73
2019-05-30T17:09:56.821Z,101464.57
2019-05-30T17:12:25.825Z,101462.75
2019-05-30T17:14:55.000Z,101463.34
2019-05-30T17:17:24.262Z,101458.38
2019-05-30T17:19:53.100Z,101457.52
2019-05-30T17:22:22.790Z,101459.20
2019-05-30T17:24:54.467Z,101455.70
2019-05-30T17:27:22.696Z,101453.13
2019-05-30T17:29:51.906Z,101450.84
2019-05-30T17:32:21.759Z,101458.33
2019-05-30T17:34:50.761Z,101457.31
2019-05-30T17:37:20.312Z,101453.42
2019-05-30T17:39:49.434Z,101457.81
2019-05-30T17:42:18.651Z,101454.83
2019-05-30T17:44:47.867Z,101460.48
2019-05-30T17:47:16.745Z,101459.80
2019-05-30T17:49:45.898Z,101461.72
2019-05-30T17:52:15.003Z,101455.73
2019-05-30T17:54:43.844Z,101455.94
2019-05-30T17:57:12.736Z,101455.26
2019-05-30T17:59:41.568Z,101454.51
2019-05-30T18:02:10.576Z,101460.92
2019-05-30T18:04:39.460Z,101461.63
2019-05-30T18:07:08.457Z,101459.00
2019-05-30T18:09:37.306Z,101458.55
2019-05-30T18:12:06.250Z,101465.30
2019-05-30T18:14:35.428Z,101468.22
2019-05-30T18:17:04.361Z,101468.80
2019-05-30T18:19:33.241Z,101470.50
2019-05-30T18:22:02.120Z,101470.73
2019-05-30T18:24:31.788Z,101473.30
2019-05-30T18:27:00.743Z,101474.70
2019-05-30T18:29:30.222Z,101468.26
2019-05-30T18:31:59.085Z,101465.31
2019-05-30T18:34:28.447Z,101469.23
2019-05-30T18:36:57.635Z,101468.98
2019-05-30T18:39:26.716Z,101472.33
2019-05-30T18:41:56.004Z,101465.20
2019-05-30T18:44:28.831Z,101471.70
2019-05-30T18:46:56.456Z,101471.20
2019-05-30T18:49:27.056Z,101473.66
2019-05-30T18:51:56.868Z,101476.48
2019-05-30T18:54:26.564Z,101473.80
2019-05-30T18:56:55.876Z,101473.50
2019-05-30T18:59:24.974Z,101471.20
2019-05-30T19:01:53.965Z,101465.91
2019-05-30T19:04:23.052Z,101469.94
2019-05-30T19:06:51.880Z,101468.30
2019-05-30T19:09:20.741Z,101471.48
2019-05-30T19:11:49.607Z,101471.02
2019-05-30T19:14:18.755Z,101472.88
2019-05-30T19:16:47.585Z,101469.69
2019-05-30T19:19:16.524Z,101481.19
2019-05-30T19:21:45.715Z,101482.72
2019-05-30T19:25:50.292Z,101482.89
2019-05-30T19:26:45.751Z,101478.91
2019-05-30T19:29:14.667Z,101480.92
2019-05-30T19:31:43.584Z,101480.66
2019-05-30T19:34:12.533Z,101484.01
2019-05-30T19:36:41.474Z,101489.25
2019-05-30T19:39:10.395Z,101488.98
2019-05-30T19:41:52.615Z,101502.69
2019-05-30T19:44:09.950Z,101496.55
2019-05-30T19:46:38.799Z,101500.59
2019-05-30T19:49:07.672Z,101500.33
2019-05-30T19:51:37.108Z,101507.72
2019-05-30T19:54:06.423Z,101513.91
2019-05-30T19:56:38.776Z,101515.45
2019-05-30T19:59:06.359Z,101508.01
2019-05-30T20:01:35.864Z,101512.41
2019-05-30T20:04:04.756Z,101522.60
2019-05-30T20:06:34.563Z,101516.14
2019-05-30T20:09:03.718Z,101521.51
2019-05-30T20:11:33.227Z,101526.53
2019-05-30T20:14:02.070Z,101522.56
2019-05-30T20:16:31.399Z,101526.09
2019-05-30T20:19:00.287Z,101532.92
2019-05-30T20:21:29.221Z,101528.95
2019-05-30T20:23:59.538Z,101528.67
2019-05-30T20:26:28.770Z,101523.85
2019-05-30T20:28:58.060Z,101530.55
2019-05-30T20:31:27.042Z,101528.07
2019-05-30T20:33:57.055Z,101526.08
2019-05-30T20:36:25.871Z,101526.73
2019-05-30T20:38:55.063Z,101532.92
2019-05-30T20:41:24.404Z,101536.62
2019-05-30T20:43:53.538Z,101532.16
2019-05-30T20:46:23.769Z,101536.49
2019-05-30T20:48:52.698Z,101539.50
2019-05-30T20:51:21.953Z,101538.83
2019-05-30T20:53:50.798Z,101538.36
2019-05-30T20:56:20.333Z,101545.20
2019-05-30T20:58:49.258Z,101541.89
2019-05-30T21:01:18.248Z,101543.24
2019-05-30T21:03:47.440Z,101552.59
2019-05-30T21:06:16.336Z,101548.08
2019-05-30T21:08:47.320Z,101558.91
2019-05-30T21:11:16.393Z,101561.75
2019-05-30T21:13:46.414Z,101563.59
2019-05-30T21:16:16.553Z,101563.62
2019-05-30T21:18:46.935Z,101569.09
2019-05-30T21:21:15.964Z,101568.10
2019-05-30T21:23:45.113Z,101571.09
2019-05-30T21:26:13.976Z,101564.97
2019-05-30T21:28:43.164Z,101570.78
2019-05-30T21:31:11.976Z,101575.11
2019-05-30T21:33:41.951Z,101573.61
2019-05-30T21:36:11.664Z,101572.28
2019-05-30T21:38:41.933Z,101573.63
2019-05-30T21:41:11.442Z,101572.78
2019-05-30T21:43:40.430Z,101575.96
2019-05-30T21:46:09.232Z,101576.47
2019-05-30T21:48:38.788Z,101577.31
2019-05-30T21:51:08.358Z,101577.47
2019-05-30T21:53:37.695Z,101576.14
2019-05-30T21:56:06.630Z,101570.16
2019-05-30T21:58:35.581Z,101575.30
2019-05-30T22:01:36.663Z,101574.14
2019-05-30T22:04:06.788Z,101576.13
2019-05-30T22:06:35.831Z,101572.48
2019-05-30T22:09:07.671Z,101566.48
2019-05-30T22:11:37.254Z,101574.13
2019-05-30T22:14:06.238Z,101576.95
2019-05-30T22:16:35.219Z,101569.49
2019-05-30T22:19:04.219Z,101575.94
2019-05-30T22:21:33.078Z,101572.59
2019-05-30T22:24:02.031Z,101574.28
2019-05-30T22:26:30.893Z,101578.11
2019-05-30T22:28:59.824Z,101579.58
2019-05-30T22:31:28.814Z,101575.55
2019-05-30T22:33:57.668Z,101577.03
2019-05-30T22:36:26.584Z,101569.88
2019-05-30T22:38:55.562Z,101567.20
2019-05-30T22:41:24.502Z,101572.19
2019-05-30T22:43:53.458Z,101574.16
2019-05-30T22:46:22.283Z,101569.50
2019-05-30T22:48:52.857Z,101571.47
2019-05-30T22:51:22.315Z,101569.48
2019-05-30T22:53:51.641Z,101573.79
2019-05-30T22:56:20.762Z,101570.97
2019-05-30T22:58:50.148Z,101561.14
2019-05-30T23:01:19.235Z,101562.29
2019-05-30T23:03:49.157Z,101563.15
2019-05-30T23:06:18.325Z,101560.97
2019-05-30T23:08:48.422Z,101560.45
2019-05-30T23:11:17.474Z,101555.13
2019-05-30T23:13:47.912Z,101555.45
2019-05-30T23:16:16.716Z,101558.94
2019-05-30T23:18:46.444Z,101555.77
2019-05-30T23:21:15.269Z,101560.11
2019-05-30T23:23:44.258Z,101564.11
2019-05-30T23:26:14.085Z,101557.45
2019-05-30T23:28:42.994Z,101560.94
2019-05-30T23:31:11.847Z,101559.92
2019-05-30T23:33:40.783Z,101556.75
2019-05-30T23:36:09.870Z,101559.10
2019-05-30T23:38:38.772Z,101562.08
2019-05-30T23:41:07.637Z,101560.43
2019-05-30T23:43:36.853Z,101559.61
2019-05-30T23:46:05.837Z,101560.94
2019-05-30T23:48:34.694Z,101560.11
2019-05-30T23:51:03.904Z,101552.95
2019-05-30T23:53:32.753Z,101550.45
2019-05-30T23:56:01.606Z,101550.45
2019-05-30T23:58:30.513Z,101548.64
